Time;durP1;ratioP1;P1;durP2;ratioP2;P2;SDS_P1;SDS_P2;PMS_P1;PMS_P2;Temp;Humidity;BMP_temperature;BMP_pressure;BME280_temperature;BME280_humidity;BME280_pressure;Samples;Min_cycle;Max_cycle;Signal;HPM_P1;HPM_P2
2023/06/14 00:02:07;;;;;;;5.5;3.5;;;;;;;;;;;;;
2023/06/14 00:04:30;;;;;;;4.5;3.7;;;;;;;;;;;;;
2023/06/14 00:06:56;;;;;;;10.7;3.5;;;;;;;;;;;;;
2023/06/14 00:09:21;;;;;;;5.2;3.5;;;;;;;;;;;;;
2023/06/14 00:11:47;;;;;;;5.3;3.3;;;;;;;;;;;;;
2023/06/14 00:14:12;;;;;;;5.2;3.4;;;;;;;;;;;;;
2023/06/14 00:16:38;;;;;;;6;3.3;;;;;;;;;;;;;
2023/06/14 00:19:04;;;;;;;5.6;3.5;;;;;;;;;;;;;
2023/06/14 00:21:29;;;;;;;5.3;3.3;;;;;;;;;;;;;
2023/06/14 00:23:54;;;;;;;5.6;3.6;;;;;;;;;;;;;
2023/06/14 00:26:21;;;;;;;4.5;3.1;;;;;;;;;;;;;
2023/06/14 00:28:47;;;;;;;4.9;3.4;;;;;;;;;;;;;
2023/06/14 00:31:16;;;;;;;5.4;3.5;;;;;;;;;;;;;
2023/06/14 00:33:42;;;;;;;5.6;3.2;;;;;;;;;;;;;
2023/06/14 00:36:08;;;;;;;4.6;3.4;;;;;;;;;;;;;
2023/06/14 00:38:33;;;;;;;6;3.5;;;;;;;;;;;;;
2023/06/14 00:40:58;;;;;;;5.8;3.4;;;;;;;;;;;;;
2023/06/14 00:43:26;;;;;;;6.1;3.4;;;;;;;;;;;;;
2023/06/14 00:45:52;;;;;;;3.4;2.9;;;;;;;;;;;;;
2023/06/14 00:48:16;;;;;;;7.1;3.3;;;;;;;;;;;;;
2023/06/14 00:50:41;;;;;;;4.6;3.2;;;;;;;;;;;;;
2023/06/14 00:53:07;;;;;;;4.6;3.4;;;;;;;;;;;;;
2023/06/14 00:55:32;;;;;;;4.7;3.5;;;;;;;;;;;;;
2023/06/14 00:57:58;;;;;;;5.2;3.4;;;;;;;;;;;;;
2023/06/14 01:00:23;;;;;;;12.4;6.9;;;;;;;;;;;;;
2023/06/14 01:02:51;;;;;;;18.4;10.9;;;;;;;;;;;;;
2023/06/14 01:05:16;;;;;;;5.6;3.5;;;;;;;;;;;;;
2023/06/14 01:07:42;;;;;;;5.2;3.8;;;;;;;;;;;;;
2023/06/14 01:10:07;;;;;;;4.6;3.6;;;;;;;;;;;;;
2023/06/14 01:12:32;;;;;;;4.5;3.7;;;;;;;;;;;;;
2023/06/14 01:14:58;;;;;;;5.6;3.7;;;;;;;;;;;;;
2023/06/14 01:17:23;;;;;;;5.1;3.5;;;;;;;;;;;;;
2023/06/14 01:19:48;;;;;;;6.2;3.9;;;;;;;;;;;;;
2023/06/14 01:22:13;;;;;;;5.4;3.4;;;;;;;;;;;;;
2023/06/14 01:24:44;;;;;;;5.6;3.9;;;;;;;;;;;;;
2023/06/14 01:27:04;;;;;;;5.6;3.5;;;;;;;;;;;;;
2023/06/14 01:29:32;;;;;;;5.3;3.4;;;;;;;;;;;;;
2023/06/14 01:31:56;;;;;;;5.8;3.4;;;;;;;;;;;;;
2023/06/14 01:34:21;;;;;;;11.8;3.9;;;;;;;;;;;;;
2023/06/14 01:36:47;;;;;;;4.4;3.4;;;;;;;;;;;;;
2023/06/14 01:39:13;;;;;;;4.2;3.6;;;;;;;;;;;;;
2023/06/14 01:41:38;;;;;;;5.1;3.8;;;;;;;;;;;;;
2023/06/14 01:44:03;;;;;;;5.5;3.3;;;;;;;;;;;;;
2023/06/14 01:46:28;;;;;;;5.5;3.5;;;;;;;;;;;;;
2023/06/14 01:48:54;;;;;;;6.9;3.2;;;;;;;;;;;;;
2023/06/14 01:51:20;;;;;;;5.1;3.4;;;;;;;;;;;;;
2023/06/14 01:53:46;;;;;;;4.7;3.4;;;;;;;;;;;;;
2023/06/14 01:56:11;;;;;;;7.9;3.8;;;;;;;;;;;;;
2023/06/14 01:58:39;;;;;;;5.5;3.5;;;;;;;;;;;;;
2023/06/14 02:01:03;;;;;;;4.7;3.3;;;;;;;;;;;;;
2023/06/14 02:03:30;;;;;;;6.8;3.4;;;;;;;;;;;;;
2023/06/14 02:05:56;;;;;;;5.8;3.8;;;;;;;;;;;;;
2023/06/14 02:08:20;;;;;;;5.2;3.9;;;;;;;;;;;;;
2023/06/14 02:10:45;;;;;;;3.8;3.4;;;;;;;;;;;;;
2023/06/14 02:13:11;;;;;;;4.8;3.8;;;;;;;;;;;;;
2023/06/14 02:15:36;;;;;;;4.6;3.4;;;;;;;;;;;;;
2023/06/14 02:18:03;;;;;;;4.8;3.6;;;;;;;;;;;;;
2023/06/14 02:20:27;;;;;;;5.9;3.4;;;;;;;;;;;;;
2023/06/14 02:22:54;;;;;;;4.9;3.6;;;;;;;;;;;;;
2023/06/14 02:25:19;;;;;;;4.1;3.6;;;;;;;;;;;;;
2023/06/14 02:27:45;;;;;;;4.6;3.1;;;;;;;;;;;;;
2023/06/14 02:30:10;;;;;;;5;3.8;;;;;;;;;;;;;
2023/06/14 02:32:38;;;;;;;5.4;3.6;;;;;;;;;;;;;
2023/06/14 02:35:03;;;;;;;4.7;3.4;;;;;;;;;;;;;
2023/06/14 02:37:29;;;;;;;5.1;4.1;;;;;;;;;;;;;
2023/06/14 02:39:54;;;;;;;6.2;3.5;;;;;;;;;;;;;
2023/06/14 02:42:20;;;;;;;4.9;3.4;;;;;;;;;;;;;
2023/06/14 02:44:46;;;;;;;6.2;4.1;;;;;;;;;;;;;
2023/06/14 02:47:11;;;;;;;6.3;3.7;;;;;;;;;;;;;
2023/06/14 02:49:36;;;;;;;5;3.3;;;;;;;;;;;;;
2023/06/14 02:52:03;;;;;;;6.7;3.8;;;;;;;;;;;;;
2023/06/14 02:54:28;;;;;;;4;3.5;;;;;;;;;;;;;
2023/06/14 02:56:53;;;;;;;5.7;3.6;;;;;;;;;;;;;
2023/06/14 02:59:19;;;;;;;4.9;3.7;;;;;;;;;;;;;
2023/06/14 03:01:44;;;;;;;4.9;3.7;;;;;;;;;;;;;
2023/06/14 03:04:09;;;;;;;9.3;3.9;;;;;;;;;;;;;
2023/06/14 03:06:35;;;;;;;5.6;3.9;;;;;;;;;;;;;
2023/06/14 03:09:04;;;;;;;5;3.8;;;;;;;;;;;;;
2023/06/14 03:11:25;;;;;;;5.4;3.4;;;;;;;;;;;;;
2023/06/14 03:13:50;;;;;;;6.8;3.8;;;;;;;;;;;;;
2023/06/14 03:16:15;;;;;;;5.8;3.3;;;;;;;;;;;;;
2023/06/14 03:18:41;;;;;;;5.1;3.4;;;;;;;;;;;;;
2023/06/14 03:21:07;;;;;;;5.8;3.5;;;;;;;;;;;;;
2023/06/14 03:23:31;;;;;;;5.3;3.9;;;;;;;;;;;;;
2023/06/14 03:25:56;;;;;;;5.2;3.2;;;;;;;;;;;;;
2023/06/14 03:28:23;;;;;;;6.7;3.8;;;;;;;;;;;;;
2023/06/14 03:30:49;;;;;;;5.4;3.8;;;;;;;;;;;;;
2023/06/14 03:33:15;;;;;;;5.2;3.6;;;;;;;;;;;;;
2023/06/14 03:35:40;;;;;;;5.2;3.4;;;;;;;;;;;;;
2023/06/14 03:38:05;;;;;;;4.6;3.4;;;;;;;;;;;;;
2023/06/14 03:40:31;;;;;;;8.1;4.7;;;;;;;;;;;;;
2023/06/14 03:42:57;;;;;;;10.3;4.3;;;;;;;;;;;;;
2023/06/14 03:45:22;;;;;;;5.1;4.3;;;;;;;;;;;;;
2023/06/14 03:47:48;;;;;;;6.9;5.1;;;;;;;;;;;;;
2023/06/14 03:50:13;;;;;;;4.7;3.4;;;;;;;;;;;;;
2023/06/14 03:52:39;;;;;;;5.7;3.9;;;;;;;;;;;;;
2023/06/14 03:55:04;;;;;;;6.1;3.6;;;;;;;;;;;;;
2023/06/14 03:57:30;;;;;;;4.8;3.8;;;;;;;;;;;;;
2023/06/14 03:59:56;;;;;;;5.1;3.5;;;;;;;;;;;;;
2023/06/14 04:02:38;;;;;;;5.8;3.6;;;;;;;9.15;70.95117;933.3714;;;;
2023/06/14 04:05:02;;;;;;;6.1;3.8;;;;;;;9.31;70.87402;933.4425;;;;
2023/06/14 04:07:32;;;;;;;4.4;3.5;;;;;;;9.27;70.55957;933.4352;;;;
2023/06/14 04:10:02;;;;;;;5.1;3.4;;;;;;;9.28;70.58496;933.3788;;;;
2023/06/14 04:12:29;;;;;;;5.7;3.3;;;;;;;9.53;69.61133;933.3996;;;;
2023/06/14 04:14:59;;;;;;;5.4;3.5;;;;;;;9.67;69.48438;933.4586;;;;
2023/06/14 04:17:24;;;;;;;5.2;3.7;;;;;;;9.94;69.46094;933.4481;;;;
2023/06/14 04:19:49;;;;;;;4.5;3.5;;;;;;;10.18;67.35254;933.4954;;;;
2023/06/14 04:22:15;;;;;;;7.2;3.7;;;;;;;9.96;68.20996;933.4919;;;;
2023/06/14 04:24:42;;;;;;;4.9;3.7;;;;;;;9.93;68.62598;933.4712;;;;
2023/06/14 04:27:07;;;;;;;7;4;;;;;;;10.17;68.08301;933.4938;;;;
2023/06/14 04:29:32;;;;;;;5.6;3.6;;;;;;;10.31;67.43066;933.5481;;;;
2023/06/14 04:32:01;;;;;;;6.7;3.8;;;;;;;10.22;68.03418;933.5447;;;;
2023/06/14 04:34:29;;;;;;;7;3.8;;;;;;;10.33;67.2168;933.4829;;;;
2023/06/14 04:36:53;;;;;;;6.1;3.6;;;;;;;10.61;66.49512;933.5625;;;;
2023/06/14 04:39:21;;;;;;;8.2;3.9;;;;;;;10.88;65.75977;933.5235;;;;
2023/06/14 04:41:56;;;;;;;4.7;3.5;;;;;;;10.91;65.53711;933.5363;;;;
2023/06/14 04:44:18;;;;;;;4.8;3.6;;;;;;;10.73;66.49023;933.6219;;;;
2023/06/14 04:46:47;;;;;;;7.1;3.7;;;;;;;10.95;66.52539;933.5474;;;;
2023/06/14 04:49:14;;;;;;;7.9;3.9;;;;;;;11.12;65.7168;933.6099;;;;
2023/06/14 04:51:37;;;;;;;7;4;;;;;;;11.19;65.37207;933.5692;;;;
2023/06/14 04:54:04;;;;;;;6.3;3.6;;;;;;;11.43;64.70117;933.6284;;;;
2023/06/14 04:56:30;;;;;;;6.2;3.9;;;;;;;11.4;64.44434;933.5628;;;;
2023/06/14 04:58:57;;;;;;;7.9;4.3;;;;;;;11.38;65.12598;933.5772;;;;
2023/06/14 05:01:22;;;;;;;8.2;4.9;;;;;;;11.8;67.93848;933.5525;;;;
2023/06/14 05:03:52;;;;;;;10.6;6.3;;;;;;;12.46;64.20117;933.5276;;;;
2023/06/14 05:06:20;;;;;;;13.4;5.9;;;;;;;12.83;61.83203;933.4908;;;;
2023/06/14 05:08:45;;;;;;;7;5.1;;;;;;;12.56;60.69238;933.5031;;;;
2023/06/14 05:11:10;;;;;;;6.4;4.4;;;;;;;12.45;61.27441;933.4838;;;;
2023/06/14 05:13:41;;;;;;;5.1;3.9;;;;;;;12.71;59.72656;933.493;;;;
2023/06/14 05:16:11;;;;;;;7.2;4.2;;;;;;;13.64;57.53223;933.4285;;;;
2023/06/14 05:18:35;;;;;;;7.9;3.4;;;;;;;14.05;55.96289;933.3791;;;;
2023/06/14 05:21:01;;;;;;;5;3.3;;;;;;;14.7;53.92578;933.4045;;;;
2023/06/14 05:23:30;;;;;;;6.2;3.8;;;;;;;15.11;52.30371;933.395;;;;
2023/06/14 05:25:54;;;;;;;6.9;3.8;;;;;;;14.99;52.42773;933.4326;;;;
2023/06/14 05:28:20;;;;;;;4.9;3.1;;;;;;;14.98;52.73828;933.4896;;;;
2023/06/14 05:30:47;;;;;;;4.4;3;;;;;;;15.72;50.78223;933.4724;;;;
2023/06/14 05:33:12;;;;;;;4.7;3;;;;;;;16.52;48.7793;933.4531;;;;
2023/06/14 05:35:42;;;;;;;5.5;3.1;;;;;;;17.69;47.65527;933.4597;;;;
2023/06/14 05:38:11;;;;;;;3.6;3;;;;;;;18.36;43.06641;933.4142;;;;
2023/06/14 05:40:36;;;;;;;5.4;3;;;;;;;19.17;41.90039;933.5084;;;;
2023/06/14 05:43:06;;;;;;;5.1;2.9;;;;;;;19.49;41.49902;933.4651;;;;
2023/06/14 05:45:37;;;;;;;4.9;2.8;;;;;;;19.79;40.1748;933.4136;;;;
2023/06/14 05:48:08;;;;;;;5.6;3.1;;;;;;;20.25;40.20508;933.3994;;;;
2023/06/14 05:50:38;;;;;;;5.9;3.2;;;;;;;21.76;37.36719;933.4316;;;;
2023/06/14 05:53:03;;;;;;;6.5;3.1;;;;;;;21.01;37.25684;933.3569;;;;
2023/06/14 05:55:30;;;;;;;3.7;2.9;;;;;;;19.81;40.38672;933.4509;;;;
2023/06/14 05:57:56;;;;;;;4.3;3.2;;;;;;;19.95;39.99121;933.4037;;;;
2023/06/14 06:00:24;;;;;;;4.4;3;;;;;;;19.32;41.63477;933.438;;;;
2023/06/14 06:02:49;;;;;;;3.9;2.9;;;;;;;18.37;42.92871;933.4316;;;;
2023/06/14 06:05:18;;;;;;;3.4;2.9;;;;;;;17.51;44.49316;933.404;;;;
2023/06/14 06:07:44;;;;;;;4.1;3.1;;;;;;;18.07;46.72168;933.3967;;;;
2023/06/14 06:10:08;;;;;;;5.9;3.3;;;;;;;19.83;42.4873;933.4289;;;;
2023/06/14 06:12:37;;;;;;;4.4;3;;;;;;;20.96;38.32813;933.3702;;;;
2023/06/14 06:15:11;;;;;;;6.7;3.2;;;;;;;21.75;37.56543;933.3434;;;;
2023/06/14 06:17:33;;;;;;;3.3;2.9;;;;;;;22.27;36.1084;933.2811;;;;
2023/06/14 06:20:05;;;;;;;4.8;2.9;;;;;;;23.17;34.91211;933.31;;;;
2023/06/14 06:22:29;;;;;;;4;2.9;;;;;;;23.06;33.16602;933.2776;;;;
2023/06/14 06:24:58;;;;;;;5.4;3.2;;;;;;;23.41;35.10742;933.2794;;;;
2023/06/14 06:27:23;;;;;;;5;3.1;;;;;;;23.98;31.18555;933.3239;;;;
2023/06/14 06:29:52;;;;;;;3.8;2.7;;;;;;;24.21;31.24805;933.2623;;;;
2023/06/14 06:32:23;;;;;;;4.3;2.7;;;;;;;24.9;32.68848;933.2419;;;;
2023/06/14 06:34:52;;;;;;;4.2;2.7;;;;;;;24.72;32.43945;933.2455;;;;
2023/06/14 06:37:17;;;;;;;3.3;2.9;;;;;;;24.23;32.88672;933.2223;;;;
2023/06/14 06:39:50;;;;;;;4.1;2.9;;;;;;;25.35;32.93359;933.2673;;;;
2023/06/14 06:42:19;;;;;;;3.5;2.6;;;;;;;25.75;31.66406;933.21;;;;
2023/06/14 06:44:44;;;;;;;4.4;2.4;;;;;;;26.04;29.21191;933.2611;;;;
2023/06/14 06:47:09;;;;;;;4.5;3.1;;;;;;;26.8;26.78613;933.2164;;;;
2023/06/14 06:49:38;;;;;;;6.4;2.8;;;;;;;26.37;26.5127;933.2434;;;;
2023/06/14 06:57:45;;;;;;;4.4;2.8;;;;;;;25.46;30.40332;933.4072;;;;
2023/06/14 07:00:15;;;;;;;5.4;3.1;;;;;;;24.63;32.92871;933.4352;;;;
2023/06/14 07:02:40;;;;;;;3.2;2.9;;;;;;;25.56;29.22852;933.361;;;;
2023/06/14 07:05:12;;;;;;;3.2;2.6;;;;;;;25.47;30.43848;933.435;;;;
2023/06/14 07:07:44;;;;;;;6.6;2.8;;;;;;;26.08;29.3457;933.3889;;;;
2023/06/14 07:10:15;;;;;;;3.5;2.6;;;;;;;25.94;28.50879;933.41;;;;
2023/06/14 07:12:44;;;;;;;3.6;2.6;;;;;;;26.7;28.6875;933.4373;;;;
2023/06/14 07:15:14;;;;;;;3;2.6;;;;;;;27.76;26.80762;933.4305;;;;
2023/06/14 07:17:39;;;;;;;5.4;2.8;;;;;;;27.41;28.875;933.3678;;;;
2023/06/14 07:20:13;;;;;;;4.9;2.9;;;;;;;27.33;28.95215;933.3611;;;;
2023/06/14 07:22:35;;;;;;;4.6;2.9;;;;;;;26.65;29.93945;933.3513;;;;
2023/06/14 07:25:00;;;;;;;3.3;2.8;;;;;;;27.02;30.50879;933.3425;;;;
2023/06/14 07:31:10;;;;;;;4.2;3;;;;;;;25.83;30.17969;933.3479;;;;
2023/06/14 07:33:35;;;;;;;3.5;2.6;;;;;;;27.75;28.75391;933.3844;;;;
2023/06/14 07:36:01;;;;;;;4.7;2.9;;;;;;;26.9;28.59375;933.3968;;;;
2023/06/14 07:38:26;;;;;;;3.8;2.8;;;;;;;28.78;26.59473;933.3923;;;;
2023/06/14 07:40:59;;;;;;;6.1;3.3;;;;;;;28.44;26.7168;933.3701;;;;
2023/06/14 07:43:29;;;;;;;3.8;2.7;;;;;;;28.42;28.28613;933.4022;;;;
2023/06/14 07:46:00;;;;;;;3.7;2.4;;;;;;;28.86;26.68262;933.3882;;;;
2023/06/14 07:48:30;;;;;;;5.7;2.9;;;;;;;29.04;23.87109;933.3161;;;;
2023/06/14 07:50:56;;;;;;;6;3.1;;;;;;;29.32;25.11328;933.4127;;;;
2023/06/14 07:53:24;;;;;;;5.2;2.4;;;;;;;27.5;25.74805;933.3933;;;;
2023/06/14 07:58:19;;;;;;;3.7;2.9;;;;;;;27.31;26.28223;933.3503;;;;
2023/06/14 08:00:46;;;;;;;3.4;2.4;;;;;;;27.57;25.43164;933.3538;;;;
2023/06/14 08:03:13;;;;;;;4.4;2.5;;;;;;;27.08;26.60156;933.3298;;;;
2023/06/14 08:05:43;;;;;;;4.1;2.8;;;;;;;25.81;29.57617;933.3837;;;;
2023/06/14 08:08:42;;;;;;;3.1;2.6;;;;;;;27.47;27.72754;933.3707;;;;
2023/06/14 08:11:10;;;;;;;3.2;2.5;;;;;;;28.57;25.89258;933.368;;;;
2023/06/14 08:13:35;;;;;;;3.4;2.7;;;;;;;29.27;25.22949;933.3619;;;;
2023/06/14 08:16:05;;;;;;;3.2;2.6;;;;;;;29.79;24.74609;933.3152;;;;
2023/06/14 08:18:30;;;;;;;3;2.7;;;;;;;31.12;22.77344;933.2615;;;;
2023/06/14 08:20:54;;;;;;;3.4;2.6;;;;;;;31.35;23.37109;933.2985;;;;
2023/06/14 08:23:21;;;;;;;4.6;2.5;;;;;;;31.41;22.58398;933.2999;;;;
2023/06/14 08:25:45;;;;;;;4.9;2.7;;;;;;;32.55;21.56152;933.3159;;;;
2023/06/14 08:28:10;;;;;;;2.5;2.3;;;;;;;30.19;24.92383;933.3214;;;;
2023/06/14 08:30:38;;;;;;;6.1;2.6;;;;;;;32.26;21.3916;933.3116;;;;
2023/06/14 08:33:03;;;;;;;4;2.6;;;;;;;32.15;22.35742;933.3228;;;;
2023/06/14 08:35:32;;;;;;;5;2.8;;;;;;;33.2;21.24414;933.3362;;;;
2023/06/14 08:38:00;;;;;;;2.7;2.4;;;;;;;31.21;24.29785;933.2858;;;;
2023/06/14 08:40:27;;;;;;;3.1;2.4;;;;;;;31.01;23.98828;933.3205;;;;
2023/06/14 08:42:54;;;;;;;3.9;2.5;;;;;;;30.54;24.34473;933.3616;;;;
2023/06/14 08:45:28;;;;;;;3.1;2.6;;;;;;;30.23;22.64551;933.3358;;;;
2023/06/14 08:47:59;;;;;;;2.4;2.2;;;;;;;29.86;23.90332;933.3408;;;;
2023/06/14 08:50:23;;;;;;;2.5;2.2;;;;;;;29.07;24.83789;933.3083;;;;
2023/06/14 08:52:52;;;;;;;3.3;2.5;;;;;;;27.55;27.96973;933.3574;;;;
2023/06/14 08:55:19;;;;;;;5.3;2.8;;;;;;;27.8;26.47754;933.3352;;;;
2023/06/14 08:57:45;;;;;;;3.2;2.5;;;;;;;28.27;25.98145;933.3152;;;;
2023/06/14 09:00:12;;;;;;;3.3;2.6;;;;;;;28.67;26.02832;933.317;;;;
2023/06/14 09:02:35;;;;;;;5;2.6;;;;;;;28.2;27.41602;933.3427;;;;
2023/06/14 09:05:01;;;;;;;3;2.5;;;;;;;27.99;27.49805;933.3903;;;;
2023/06/14 09:07:27;;;;;;;6.2;2.7;;;;;;;28.13;30.42969;933.3091;;;;
2023/06/14 09:09:54;;;;;;;4.6;3;;;;;;;27.19;30.05859;933.2806;;;;
2023/06/14 09:12:20;;;;;;;4.1;2.8;;;;;;;26.12;31.18066;933.2766;;;;
2023/06/14 09:14:48;;;;;;;4.7;2.7;;;;;;;26.72;31.08008;933.2724;;;;
2023/06/14 09:17:13;;;;;;;7.3;2.8;;;;;;;25.91;31.32031;933.3289;;;;
2023/06/14 09:19:41;;;;;;;4.7;2.9;;;;;;;24.67;36.79883;933.3818;;;;
2023/06/14 09:22:06;;;;;;;5.8;3;;;;;;;24.35;35.60547;933.3721;;;;
2023/06/14 09:24:33;;;;;;;4;2.8;;;;;;;24.95;34.82715;933.3364;;;;
2023/06/14 09:26:59;;;;;;;6.2;2.9;;;;;;;25.15;34.38379;933.2698;;;;
2023/06/14 09:29:23;;;;;;;5.6;3;;;;;;;24.1;35.97461;933.302;;;;
2023/06/14 09:31:51;;;;;;;4.1;3.1;;;;;;;24.47;34.89648;933.371;;;;
2023/06/14 09:34:17;;;;;;;5.6;2.9;;;;;;;24.37;36.16113;933.3663;;;;
2023/06/14 09:36:44;;;;;;;8.7;3.6;;;;;;;23.94;37.98633;933.3315;;;;
2023/06/14 09:39:09;;;;;;;8.1;3.4;;;;;;;23.7;35.94238;933.3499;;;;
2023/06/14 09:41:36;;;;;;;3.8;2.9;;;;;;;23.54;38.56445;933.4495;;;;
2023/06/14 09:44:02;;;;;;;6.7;3.1;;;;;;;24.47;36.44043;933.3947;;;;
2023/06/14 09:46:29;;;;;;;4.1;2.6;;;;;;;25.25;33.5293;933.3409;;;;
2023/06/14 09:48:54;;;;;;;5;3.1;;;;;;;25.12;33.61328;933.3547;;;;
2023/06/14 09:51:23;;;;;;;3.9;2.9;;;;;;;24.65;35.41797;933.4258;;;;
2023/06/14 09:53:48;;;;;;;5.2;3.2;;;;;;;24.76;36.0752;933.4048;;;;
2023/06/14 09:56:16;;;;;;;6;3.1;;;;;;;24.68;35.50293;933.3982;;;;
2023/06/14 09:58:45;;;;;;;5.3;3;;;;;;;25.16;33.75781;933.3883;;;;
2023/06/14 10:01:13;;;;;;;6.4;3.4;;;;;;;24.45;35.22461;933.4191;;;;
2023/06/14 10:03:35;;;;;;;6.5;3.3;;;;;;;23.84;35.48242;933.3481;;;;
2023/06/14 10:06:02;;;;;;;4.4;3.5;;;;;;;23.71;35.28418;933.2885;;;;
2023/06/14 10:08:26;;;;;;;4.2;3;;;;;;;22.98;36.88281;933.183;;;;
2023/06/14 10:10:51;;;;;;;6.8;3.4;;;;;;;23.35;35.03223;933.2642;;;;
2023/06/14 10:13:18;;;;;;;6.6;3;;;;;;;23.65;37.00879;933.2515;;;;
2023/06/14 10:15:43;;;;;;;5.8;3.2;;;;;;;24.08;35.20801;933.2126;;;;
2023/06/14 10:18:09;;;;;;;4.9;3.2;;;;;;;24.43;35.14063;933.2751;;;;
2023/06/14 10:20:34;;;;;;;3.2;2.9;;;;;;;24.31;34.13086;933.2184;;;;
2023/06/14 10:22:59;;;;;;;5;2.8;;;;;;;24.69;32.61426;933.2146;;;;
2023/06/14 10:25:28;;;;;;;4.7;3.1;;;;;;;24.95;32.3623;933.1791;;;;
2023/06/14 10:27:53;;;;;;;4.5;3.2;;;;;;;25.05;32.73535;933.1677;;;;
2023/06/14 10:30:20;;;;;;;4.8;2.9;;;;;;;25.06;33.93945;933.1941;;;;
2023/06/14 10:32:45;;;;;;;8.9;3.2;;;;;;;24.81;35.5;933.1865;;;;
2023/06/14 10:35:15;;;;;;;5.3;3.1;;;;;;;24.47;35.07324;933.1945;;;;
2023/06/14 10:37:40;;;;;;;4.5;3.1;;;;;;;24.47;35.09668;933.0999;;;;
2023/06/14 10:40:12;;;;;;;6.8;3.1;;;;;;;24.7;35.74023;933.1463;;;;
2023/06/14 10:42:39;;;;;;;4.4;3.3;;;;;;;24.5;34.875;933.1284;;;;
2023/06/14 10:45:13;;;;;;;4.4;2.9;;;;;;;24.66;35.08887;933.0598;;;;
2023/06/14 10:47:44;;;;;;;6.3;2.9;;;;;;;24.48;35.15625;933.0123;;;;
2023/06/14 10:50:09;;;;;;;4.6;3.2;;;;;;;23.96;35.58691;933.0209;;;;
2023/06/14 10:52:35;;;;;;;10.1;3.1;;;;;;;24.02;35.49805;933.069;;;;
2023/06/14 10:54:59;;;;;;;4.4;2.8;;;;;;;24.44;34.28125;933.0493;;;;
2023/06/14 10:57:26;;;;;;;4.3;2.7;;;;;;;24.07;34.65332;933.0651;;;;
2023/06/14 10:59:51;;;;;;;7.7;3;;;;;;;24.19;35.15723;933.0809;;;;
2023/06/14 11:02:22;;;;;;;5.2;3;;;;;;;24.63;34.5791;933.0436;;;;
2023/06/14 11:04:47;;;;;;;7.5;3.1;;;;;;;24.44;33.58594;933.0089;;;;
2023/06/14 11:07:12;;;;;;;6.2;3;;;;;;;24.55;32.08594;932.963;;;;
2023/06/14 11:09:41;;;;;;;5.3;3;;;;;;;24.34;35.15723;932.9706;;;;
2023/06/14 11:12:04;;;;;;;4.9;3;;;;;;;24.31;34.75488;933.0364;;;;
2023/06/14 11:14:30;;;;;;;4.8;2.9;;;;;;;24.55;33.14648;932.9867;;;;
2023/06/14 11:16:58;;;;;;;6.4;3.1;;;;;;;24.78;34.68457;933.0432;;;;
2023/06/14 11:19:24;;;;;;;4.1;3;;;;;;;24.16;32.54004;932.9719;;;;
2023/06/14 11:21:50;;;;;;;4.5;3;;;;;;;24.42;32.66504;933.1526;;;;
2023/06/14 11:24:15;;;;;;;5.9;3.8;;;;;;;24.67;33.32031;933.0677;;;;
2023/06/14 11:26:43;;;;;;;4.2;3.3;;;;;;;24.17;33.73047;933.0851;;;;
2023/06/14 11:29:08;;;;;;;5.6;3.4;;;;;;;24.45;34.58887;932.9745;;;;
2023/06/14 11:31:34;;;;;;;4.3;2.9;;;;;;;24.51;33.21484;932.9992;;;;
2023/06/14 11:34:00;;;;;;;4.5;2.9;;;;;;;24.4;32.00488;932.9802;;;;
2023/06/14 11:36:27;;;;;;;5.3;2.8;;;;;;;24.08;32.54688;933.0765;;;;
2023/06/14 11:38:52;;;;;;;5.3;2.8;;;;;;;24.35;32.49512;932.9847;;;;
2023/06/14 11:41:21;;;;;;;4;2.9;;;;;;;24.69;33.8291;932.9745;;;;
2023/06/14 11:43:47;;;;;;;3.9;3;;;;;;;24.61;32.13672;932.9372;;;;
2023/06/14 11:46:17;;;;;;;5.2;3.1;;;;;;;24.43;32.30078;932.9417;;;;
2023/06/14 11:48:41;;;;;;;4.9;3;;;;;;;24.12;33.25586;932.959;;;;
2023/06/14 11:51:08;;;;;;;3.8;2.9;;;;;;;24.6;31.68848;932.8495;;;;
2023/06/14 11:53:33;;;;;;;5;3.1;;;;;;;24.67;32.80176;932.8876;;;;
2023/06/14 11:56:01;;;;;;;4.4;2.6;;;;;;;24.56;33.20703;932.88;;;;
2023/06/14 11:58:26;;;;;;;6.2;3.1;;;;;;;24.32;32.6582;932.8851;;;;
2023/06/14 12:00:55;;;;;;;4;2.7;;;;;;;24.46;33.4707;932.848;;;;
2023/06/14 12:03:20;;;;;;;10.5;3.3;;;;;;;24.53;32.20215;932.8809;;;;
2023/06/14 12:05:47;;;;;;;3.5;2.9;;;;;;;24.71;32.29785;932.8201;;;;
2023/06/14 12:08:17;;;;;;;4.5;2.9;;;;;;;24.54;32.48535;932.9333;;;;
2023/06/14 12:10:39;;;;;;;6.1;3.2;;;;;;;24.64;32.76465;932.8167;;;;
2023/06/14 12:13:04;;;;;;;5.6;2.9;;;;;;;24.7;31.86035;932.8446;;;;
2023/06/14 12:15:30;;;;;;;4.9;3;;;;;;;24.47;30.83008;932.8833;;;;
2023/06/14 12:17:58;;;;;;;4.4;3;;;;;;;24.35;32.58984;932.8347;;;;
2023/06/14 12:20:24;;;;;;;3.8;2.7;;;;;;;23.8;34.19727;932.9092;;;;
2023/06/14 12:22:50;;;;;;;4.7;3.1;;;;;;;23.98;34.09277;932.8394;;;;
2023/06/14 12:25:16;;;;;;;5.2;3.2;;;;;;;24.07;32.9707;932.838;;;;
2023/06/14 12:27:42;;;;;;;4.1;2.8;;;;;;;24.51;32.07129;932.7941;;;;
2023/06/14 12:30:12;;;;;;;4.5;3.2;;;;;;;24.67;32.7666;932.8678;;;;
2023/06/14 12:32:39;;;;;;;6.5;3.1;;;;;;;24.66;32.65918;932.8175;;;;
2023/06/14 12:35:04;;;;;;;4.3;3;;;;;;;24.56;32.98242;932.8084;;;;
2023/06/14 12:37:33;;;;;;;5.5;3.1;;;;;;;24.75;31.22754;932.867;;;;
2023/06/14 12:39:59;;;;;;;4.6;3.3;;;;;;;24.6;32.51367;932.8934;;;;
2023/06/14 12:42:23;;;;;;;5.7;3;;;;;;;24.7;33.7002;932.9069;;;;
2023/06/14 12:44:54;;;;;;;5.1;3;;;;;;;25.08;32.12402;932.8859;;;;
2023/06/14 12:47:20;;;;;;;3.5;2.9;;;;;;;24.4;32.85254;932.9121;;;;
2023/06/14 12:49:46;;;;;;;5.2;3;;;;;;;24.5;32.69434;932.837;;;;
2023/06/14 12:52:11;;;;;;;4.8;3.2;;;;;;;24.27;32.52441;932.8869;;;;
2023/06/14 12:54:40;;;;;;;6.4;2.8;;;;;;;24.3;32.72754;932.9399;;;;
2023/06/14 12:57:05;;;;;;;7.9;3.2;;;;;;;24.21;31.86133;932.9164;;;;
2023/06/14 12:59:34;;;;;;;4.9;2.9;;;;;;;24.35;31.17578;932.9861;;;;
2023/06/14 13:01:58;;;;;;;5.6;3.3;;;;;;;24.46;31.36035;932.901;;;;
2023/06/14 13:04:27;;;;;;;4.3;2.8;;;;;;;24.78;30.49805;932.9568;;;;
2023/06/14 13:06:52;;;;;;;7.2;3;;;;;;;24.99;30.00586;933.0385;;;;
2023/06/14 13:09:19;;;;;;;6;2.8;;;;;;;25.01;30.77344;932.9903;;;;
2023/06/14 13:11:46;;;;;;;5.6;3.5;;;;;;;24.84;31.5752;933.0359;;;;
2023/06/14 13:14:12;;;;;;;7.3;3.1;;;;;;;25;29.71094;933.0444;;;;
2023/06/14 13:16:37;;;;;;;6.3;2.8;;;;;;;25.25;32.31348;933.067;;;;
2023/06/14 13:19:07;;;;;;;4.1;3;;;;;;;25.48;28.7041;933.0284;;;;
2023/06/14 13:21:32;;;;;;;5.6;3;;;;;;;25.45;30.81641;933.0259;;;;
2023/06/14 13:24:00;;;;;;;4;3.1;;;;;;;25.32;31.38574;933.0934;;;;
2023/06/14 13:26:25;;;;;;;3.4;2.8;;;;;;;24.61;31.50098;933.0581;;;;
2023/06/14 13:28:52;;;;;;;4;3.2;;;;;;;24.34;32.23535;933.1184;;;;
2023/06/14 13:31:16;;;;;;;5.8;2.9;;;;;;;24.45;31.93652;933.0898;;;;
2023/06/14 13:33:43;;;;;;;5.1;3.2;;;;;;;24.64;31.69141;933.0977;;;;
2023/06/14 13:36:08;;;;;;;5;3.2;;;;;;;24.71;31.97949;933.133;;;;
2023/06/14 13:38:36;;;;;;;3.8;2.9;;;;;;;24.88;31.55469;933.1152;;;;
2023/06/14 13:41:01;;;;;;;3.3;2.8;;;;;;;24.98;31.72754;933.0168;;;;
2023/06/14 13:43:26;;;;;;;5.3;3;;;;;;;24.7;32.34375;933.1515;;;;
2023/06/14 13:45:51;;;;;;;3.8;2.9;;;;;;;24.67;33.12012;933.0564;;;;
2023/06/14 13:48:21;;;;;;;4.5;2.5;;;;;;;24.49;31.15039;933.127;;;;
2023/06/14 13:50:49;;;;;;;7.2;3;;;;;;;24.2;33.29688;933.0602;;;;
2023/06/14 13:53:14;;;;;;;5.2;3.1;;;;;;;24.18;33.11914;932.9991;;;;
2023/06/14 13:55:39;;;;;;;4.3;3;;;;;;;24.21;32.23828;933.0701;;;;
2023/06/14 13:58:07;;;;;;;5.2;3;;;;;;;24.36;33.43848;933.0786;;;;
2023/06/14 14:00:32;;;;;;;5.8;3.2;;;;;;;24.61;33.72852;933.0609;;;;
2023/06/14 14:03:03;;;;;;;3.8;2.9;;;;;;;24.67;31.70508;932.972;;;;
2023/06/14 14:05:29;;;;;;;5.2;3.1;;;;;;;24.16;33.3418;933.0864;;;;
2023/06/14 14:07:53;;;;;;;6.1;3.1;;;;;;;24.32;33.68359;933.182;;;;
2023/06/14 14:10:23;;;;;;;7.2;3;;;;;;;24.5;33.31934;933.0008;;;;
2023/06/14 14:12:50;;;;;;;4.7;3.1;;;;;;;24.4;32.78125;933.0658;;;;
2023/06/14 14:15:15;;;;;;;4.5;2.9;;;;;;;24.35;33.09668;933.13;;;;
2023/06/14 14:17:43;;;;;;;5;3.2;;;;;;;24.58;31.84082;933.0076;;;;
2023/06/14 14:20:08;;;;;;;7;3.3;;;;;;;24.72;31.60254;933.0574;;;;
2023/06/14 14:22:36;;;;;;;7.5;3.3;;;;;;;24.62;31.27734;933.1064;;;;
2023/06/14 14:25:01;;;;;;;3;2.7;;;;;;;24.45;31.83105;933.0806;;;;
2023/06/14 14:27:30;;;;;;;3.8;3;;;;;;;24.58;30.8623;933.0555;;;;
2023/06/14 14:29:56;;;;;;;5.5;3;;;;;;;24.73;32.87695;933.0336;;;;
2023/06/14 14:32:27;;;;;;;4.5;3.3;;;;;;;24.92;31.02637;933.053;;;;
2023/06/14 14:34:53;;;;;;;3.8;2.9;;;;;;;24.82;30.63086;932.9877;;;;
2023/06/14 14:37:18;;;;;;;7;2.9;;;;;;;24.74;32.04102;933.0809;;;;
2023/06/14 14:39:47;;;;;;;4.1;3.3;;;;;;;24.71;31.30664;933.0167;;;;
2023/06/14 14:42:13;;;;;;;5.9;3;;;;;;;24.7;30.5752;933.0814;;;;
2023/06/14 14:44:44;;;;;;;5.7;3.1;;;;;;;24.6;32.07715;933.0352;;;;
2023/06/14 14:47:15;;;;;;;4.5;2.9;;;;;;;24.7;31.30566;933.0587;;;;
2023/06/14 14:49:41;;;;;;;4.9;2.8;;;;;;;24.45;32.71387;933.0474;;;;
2023/06/14 14:52:10;;;;;;;5.1;3.4;;;;;;;24.19;33.62598;933.1005;;;;
2023/06/14 14:54:40;;;;;;;9.1;3.4;;;;;;;24.29;32.37305;933.14;;;;
2023/06/14 14:57:04;;;;;;;6.5;3.4;;;;;;;24.28;32.67871;933.0969;;;;
2023/06/14 14:59:33;;;;;;;3.6;2.9;;;;;;;24.35;32.8252;933.0864;;;;
2023/06/14 15:01:58;;;;;;;5.7;3;;;;;;;24.4;32.64063;933.0714;;;;
2023/06/14 15:04:23;;;;;;;3.9;2.8;;;;;;;24.44;32.05371;933.1216;;;;
2023/06/14 15:06:53;;;;;;;5.2;3.2;;;;;;;24.34;33.06055;933.2017;;;;
2023/06/14 15:09:20;;;;;;;3.8;2.9;;;;;;;24.21;32.75684;933.1638;;;;
2023/06/14 15:11:46;;;;;;;4.6;2.7;;;;;;;24.29;32.06641;933.1691;;;;
2023/06/14 15:14:14;;;;;;;4.9;3.3;;;;;;;24.3;32.95117;933.1948;;;;
2023/06/14 15:16:38;;;;;;;5.3;2.9;;;;;;;24.04;34.29688;933.241;;;;
2023/06/14 15:19:07;;;;;;;4;3.3;;;;;;;23.96;33.5498;933.171;;;;
2023/06/14 15:21:32;;;;;;;7.6;3.2;;;;;;;23.6;33.73438;933.2319;;;;
2023/06/14 15:24:00;;;;;;;4.3;3.1;;;;;;;23.6;33.52344;933.2031;;;;
2023/06/14 15:26:25;;;;;;;5;3.4;;;;;;;23.72;33.07324;933.2596;;;;
2023/06/14 15:28:53;;;;;;;7.6;3.7;;;;;;;23.8;33.87891;933.2937;;;;
2023/06/14 15:31:17;;;;;;;4.5;3.1;;;;;;;23.85;33.37695;933.2104;;;;
2023/06/14 15:33:47;;;;;;;5.8;2.9;;;;;;;23.78;34.58398;933.2238;;;;
2023/06/14 15:36:12;;;;;;;5.1;3.4;;;;;;;23.52;34.7168;933.219;;;;
2023/06/14 15:38:38;;;;;;;3.5;3;;;;;;;23.33;34.3252;933.2473;;;;
2023/06/14 15:41:03;;;;;;;4.3;3.2;;;;;;;23.17;35.26465;933.31;;;;
2023/06/14 15:43:30;;;;;;;9.1;3.7;;;;;;;23.21;35.24512;933.2704;;;;
2023/06/14 15:45:55;;;;;;;4.6;2.8;;;;;;;23.3;35.72266;933.2617;;;;
2023/06/14 15:48:23;;;;;;;3.9;3.1;;;;;;;23.55;34.73047;933.2745;;;;
2023/06/14 15:50:48;;;;;;;4.3;2.7;;;;;;;23.57;35.20313;933.2428;;;;